createdAt,value
2023-03-05T00:00:49.210Z,98900.39
2023-03-05T00:03:21.863Z,98908.34
2023-03-05T00:05:59.817Z,98896.72
2023-03-05T00:08:33.625Z,98904.88
2023-03-05T00:11:10.839Z,98902.09
2023-03-05T00:13:44.458Z,98898.94
2023-03-05T00:16:18.234Z,98893.68
2023-03-05T00:18:50.788Z,98911.64
2023-03-05T00:21:33.801Z,98917.58
2023-03-05T00:24:15.052Z,98914.39
2023-03-05T00:26:49.966Z,98920.46
2023-03-05T00:29:22.725Z,98924.91
2023-03-05T00:31:56.151Z,98927.88
2023-03-05T00:34:29.955Z,98927.88
2023-03-05T00:37:02.257Z,98931.88
2023-03-05T00:39:35.127Z,98937.81
2023-03-05T00:42:09.015Z,98938.22
2023-03-05T00:44:43.266Z,98928.70
2023-03-05T00:47:17.892Z,98925.22
2023-03-05T00:49:51.608Z,98934.34
2023-03-05T00:52:24.418Z,98920.43
2023-03-05T00:54:58.351Z,98918.14
2023-03-05T00:57:31.109Z,98928.25
2023-03-05T01:00:04.541Z,98921.02
2023-03-05T01:02:37.714Z,98916.73
2023-03-05T01:05:14.738Z,98914.56
2023-03-05T01:07:47.784Z,98915.12
2023-03-05T01:10:20.992Z,98914.22
2023-03-05T01:12:55.939Z,98908.47
2023-03-05T01:15:29.943Z,98914.70
2023-03-05T01:18:02.823Z,98918.36
2023-03-05T01:20:36.124Z,98922.11
2023-03-05T01:23:09.781Z,98922.30
2023-03-05T01:25:43.362Z,98927.56
2023-03-05T01:28:16.637Z,98910.96
2023-03-05T01:30:51.591Z,98922.88
2023-03-05T01:33:24.972Z,98934.69
2023-03-05T01:35:57.672Z,98924.07
2023-03-05T01:38:31.026Z,98926.44
2023-03-05T01:41:04.104Z,98917.95
2023-03-05T01:43:36.970Z,98915.18
2023-03-05T01:46:30.555Z,98919.94
2023-03-05T01:49:13.850Z,98912.69
2023-03-05T01:52:04.346Z,98906.70
2023-03-05T01:55:00.385Z,98907.20
2023-03-05T01:57:40.034Z,98897.37
2023-03-05T02:00:17.634Z,98900.42
2023-03-05T02:02:52.391Z,98897.46
2023-03-05T02:05:35.441Z,98886.30
2023-03-05T02:08:12.455Z,98887.22
2023-03-05T02:10:49.581Z,98885.01
2023-03-05T02:13:31.779Z,98891.38
2023-03-05T02:16:05.132Z,98893.49
2023-03-05T02:18:38.497Z,98892.67
2023-03-05T02:21:14.979Z,98890.50
2023-03-05T02:23:47.767Z,98892.67
2023-03-05T02:26:20.690Z,98896.08
2023-03-05T02:28:57.139Z,98896.64
2023-03-05T02:31:31.452Z,98895.85
2023-03-05T02:34:06.654Z,98900.70
2023-03-05T02:36:41.435Z,98906.78
2023-03-05T02:39:14.919Z,98905.50
2023-03-05T02:41:47.856Z,98908.08
2023-03-05T02:44:20.783Z,98907.26
2023-03-05T02:46:54.280Z,98902.41
2023-03-05T02:49:27.171Z,98896.73
2023-03-05T02:52:00.139Z,98895.76
2023-03-05T02:54:33.328Z,98901.34
2023-03-05T02:57:07.764Z,98897.46
2023-03-05T02:59:41.079Z,98904.20
2023-03-05T03:02:14.025Z,98898.16
2023-03-05T03:04:48.535Z,98906.70
2023-03-05T03:07:21.560Z,98897.19
2023-03-05T03:09:54.792Z,98893.21
2023-03-05T03:12:28.745Z,98891.52
2023-03-05T03:15:03.191Z,98889.24
2023-03-05T03:17:38.883Z,98892.52
2023-03-05T03:20:15.431Z,98900.88
2023-03-05T03:22:49.057Z,98894.64
2023-03-05T03:25:23.866Z,98896.66
2023-03-05T03:27:58.238Z,98902.93
2023-03-05T03:30:30.888Z,98902.42
2023-03-05T03:33:03.776Z,98910.17
2023-03-05T03:35:38.509Z,98907.09
2023-03-05T03:38:12.299Z,98908.69
2023-03-05T03:40:44.939Z,98918.94
2023-03-05T03:43:17.903Z,98911.97
2023-03-05T03:45:51.308Z,98919.63
2023-03-05T03:48:24.484Z,98925.20
2023-03-05T03:50:57.353Z,98924.22
2023-03-05T03:53:30.443Z,98931.16
2023-03-05T03:56:03.795Z,98930.68
2023-03-05T03:58:36.621Z,98934.66
2023-03-05T04:01:09.331Z,98941.20
2023-03-05T04:03:42.076Z,98949.63
2023-03-05T04:06:15.784Z,98953.59
2023-03-05T04:08:49.037Z,98962.54
2023-03-05T04:11:23.598Z,98960.77
2023-03-05T04:13:56.349Z,98957.69
2023-03-05T04:16:29.788Z,98957.78
2023-03-05T04:19:03.290Z,98961.66
2023-03-05T04:21:36.022Z,98969.00
2023-03-05T04:24:10.409Z,98965.94
2023-03-05T04:26:43.155Z,98964.65
2023-03-05T04:29:15.948Z,98968.43
2023-03-05T04:31:49.654Z,98972.30
2023-03-05T04:34:22.560Z,98975.77
2023-03-05T04:36:55.718Z,98984.81
2023-03-05T04:39:28.873Z,98982.23
2023-03-05T04:42:01.629Z,98987.49
2023-03-05T04:44:35.161Z,98997.05
2023-03-05T04:47:08.297Z,98999.62
2023-03-05T04:49:41.361Z,99006.46
2023-03-05T04:52:15.650Z,99010.44
2023-03-05T04:54:48.420Z,99016.02
2023-03-05T04:57:23.153Z,99014.72
2023-03-05T04:59:55.794Z,99018.28
2023-03-05T05:02:28.981Z,99024.66
2023-03-05T05:05:01.875Z,99023.37
2023-03-05T05:07:35.148Z,99030.71
2023-03-05T05:10:09.431Z,99038.05
2023-03-05T05:12:42.316Z,99036.19
2023-03-05T05:15:15.592Z,99045.92
2023-03-05T05:17:49.782Z,99044.94
2023-03-05T05:20:23.118Z,99050.38
2023-03-05T05:22:56.184Z,99050.38
2023-03-05T05:25:29.360Z,99053.16
2023-03-05T05:28:02.016Z,99065.30
2023-03-05T05:30:34.979Z,99059.83
2023-03-05T05:33:08.554Z,99065.48
2023-03-05T05:35:42.210Z,99076.54
2023-03-05T05:38:15.772Z,99075.62
2023-03-05T05:40:49.303Z,99090.66
2023-03-05T05:43:22.047Z,99093.44
2023-03-05T05:45:55.665Z,99101.67
2023-03-05T05:48:30.741Z,99098.69
2023-03-05T05:51:13.414Z,99104.53
2023-03-05T05:53:47.975Z,99111.50
2023-03-05T05:56:22.081Z,99116.66
2023-03-05T05:58:55.618Z,99108.44
2023-03-05T06:01:33.680Z,99119.45
2023-03-05T06:04:06.594Z,99117.68
2023-03-05T06:06:39.980Z,99109.73
2023-03-05T06:09:13.061Z,99109.83
2023-03-05T06:11:45.987Z,99113.09
2023-03-05T06:14:18.854Z,99116.89
2023-03-05T06:16:52.310Z,99108.02
2023-03-05T06:19:24.804Z,99113.69
2023-03-05T06:21:57.905Z,99107.64
2023-03-05T06:24:30.819Z,99108.33
2023-03-05T06:27:04.635Z,99112.30
2023-03-05T06:29:38.282Z,99109.03
2023-03-05T06:32:11.691Z,99110.80
2023-03-05T06:34:44.561Z,99110.53
2023-03-05T06:37:17.464Z,99115.38
2023-03-05T06:39:50.758Z,99113.52
2023-03-05T06:42:23.689Z,99115.46
2023-03-05T06:44:56.596Z,99119.45
2023-03-05T06:47:29.910Z,99122.23
2023-03-05T06:50:03.982Z,99120.73
2023-03-05T06:52:39.269Z,99122.70
2023-03-05T06:55:12.865Z,99129.67
2023-03-05T06:57:45.709Z,99130.75
2023-03-05T07:00:18.796Z,99128.45
2023-03-05T07:02:51.787Z,99138.90
2023-03-05T07:05:25.138Z,99145.56
2023-03-05T07:07:58.571Z,99147.86
2023-03-05T07:10:31.962Z,99147.05
2023-03-05T07:13:05.022Z,99142.16
2023-03-05T07:15:41.215Z,99138.80
2023-03-05T07:18:14.155Z,99142.27
2023-03-05T07:20:46.879Z,99142.06
2023-03-05T07:23:20.478Z,99147.84
2023-03-05T07:25:53.953Z,99146.13
2023-03-05T07:28:27.418Z,99146.03
2023-03-05T07:31:03.083Z,99148.09
2023-03-05T07:33:37.502Z,99145.70
2023-03-05T07:36:12.335Z,99147.50
2023-03-05T07:38:45.472Z,99135.31
2023-03-05T07:41:22.235Z,99143.66
2023-03-05T07:43:56.735Z,99141.86
2023-03-05T07:46:33.051Z,99142.83
2023-03-05T07:49:06.859Z,99139.36
2023-03-05T07:51:42.037Z,99140.16
2023-03-05T07:54:14.664Z,99151.20
2023-03-05T07:56:47.989Z,99141.63
2023-03-05T07:59:20.796Z,99145.11
2023-03-05T08:01:54.120Z,99146.21
2023-03-05T08:04:27.355Z,99144.19
2023-03-05T08:07:01.466Z,99145.58
2023-03-05T08:09:36.239Z,99144.19
2023-03-05T08:12:10.759Z,99160.16
2023-03-05T08:14:44.329Z,99152.10
2023-03-05T08:17:16.993Z,99148.78
2023-03-05T08:19:50.402Z,99147.58
2023-03-05T08:22:23.775Z,99149.02
2023-03-05T08:24:57.356Z,99151.65
2023-03-05T08:27:30.198Z,99157.75
2023-03-05T08:30:04.235Z,99147.20
2023-03-05T08:32:37.436Z,99160.79
2023-03-05T08:35:10.653Z,99153.72
2023-03-05T08:37:43.983Z,99162.08
2023-03-05T08:40:19.088Z,99152.89
2023-03-05T08:42:52.360Z,99164.22
2023-03-05T08:45:25.782Z,99157.52
2023-03-05T08:47:59.529Z,99155.02
2023-03-05T08:50:32.900Z,99155.53
2023-03-05T08:53:05.739Z,99161.73
2023-03-05T08:55:38.763Z,99163.84
2023-03-05T08:58:11.877Z,99165.33
2023-03-05T09:00:44.554Z,99165.80
2023-03-05T09:03:17.396Z,99161.72
2023-03-05T09:05:51.638Z,99164.36
2023-03-05T09:08:25.008Z,99167.19
2023-03-05T09:10:58.850Z,99158.77
2023-03-05T09:13:31.687Z,99160.01
2023-03-05T09:16:09.893Z,99148.63
2023-03-05T09:18:42.935Z,99153.98
2023-03-05T09:21:18.662Z,99146.66
2023-03-05T09:23:52.069Z,99150.31
2023-03-05T09:26:25.517Z,99149.61
2023-03-05T09:28:58.817Z,99162.56
2023-03-05T09:31:32.116Z,99145.72
2023-03-05T09:34:05.677Z,99137.53
2023-03-05T09:36:39.563Z,99146.45
2023-03-05T09:39:12.402Z,99146.02
2023-03-05T09:42:05.381Z,99143.98
2023-03-05T09:45:27.979Z,99139.53
2023-03-05T09:48:27.482Z,99129.52
2023-03-05T09:51:05.760Z,99123.54
2023-03-05T09:53:58.085Z,99113.77
2023-03-05T09:56:38.120Z,99117.50
2023-03-05T09:59:39.844Z,99120.83
2023-03-05T10:02:29.485Z,99111.55
2023-03-05T10:05:26.472Z,99113.98
2023-03-05T10:08:06.052Z,99102.95
2023-03-05T10:10:43.340Z,99101.91
2023-03-05T10:13:30.383Z,99107.27
2023-03-05T10:16:31.911Z,99100.88
2023-03-05T10:19:27.218Z,99101.13
2023-03-05T10:22:22.591Z,99104.48
2023-03-05T10:25:27.636Z,99098.25
2023-03-05T10:28:07.893Z,99096.13
2023-03-05T10:31:08.192Z,99099.05
2023-03-05T10:34:09.292Z,99091.28
2023-03-05T10:37:01.893Z,99084.57
2023-03-05T10:40:11.649Z,99081.06
2023-03-05T10:43:23.341Z,99079.13
2023-03-05T10:45:57.044Z,99075.70
2023-03-05T10:48:52.566Z,99074.24
2023-03-05T10:51:50.905Z,99070.85
2023-03-05T10:54:39.251Z,99072.64
2023-03-05T10:57:24.264Z,99072.13
2023-03-05T11:00:10.855Z,99075.52
2023-03-05T11:03:08.238Z,99065.63
2023-03-05T11:05:46.034Z,99060.19
2023-03-05T11:08:32.940Z,99066.36
2023-03-05T11:11:19.023Z,99064.55
2023-03-05T11:14:04.194Z,99062.45
2023-03-05T11:16:51.089Z,99042.74
2023-03-05T11:19:32.244Z,99061.00
2023-03-05T11:22:21.426Z,99056.05
2023-03-05T11:25:19.366Z,99051.23
2023-03-05T11:27:56.447Z,99065.05
2023-03-05T11:30:34.113Z,99054.50
2023-03-05T11:33:22.911Z,99054.01
2023-03-05T11:36:27.423Z,99060.34
2023-03-05T11:39:18.592Z,99047.70
2023-03-05T11:42:00.937Z,99050.11
2023-03-05T11:44:49.730Z,99046.78
2023-03-05T11:47:55.147Z,99061.80
2023-03-05T11:50:31.510Z,99052.19
2023-03-05T11:53:29.076Z,99063.39
2023-03-05T11:56:18.072Z,99059.73
2023-03-05T11:59:10.607Z,99055.75
2023-03-05T12:01:47.833Z,99066.21
2023-03-05T12:04:21.891Z,99057.80
2023-03-05T12:07:04.890Z,99069.56
2023-03-05T12:09:51.095Z,99067.77
2023-03-05T12:12:58.761Z,99067.30
2023-03-05T12:16:02.773Z,99071.70
2023-03-05T12:18:47.302Z,99070.88
2023-03-05T12:21:37.688Z,99062.61
2023-03-05T12:24:33.217Z,99065.30
2023-03-05T12:27:09.937Z,99079.33
2023-03-05T12:29:54.670Z,99069.28
2023-03-05T12:32:32.411Z,99079.83
2023-03-05T12:35:35.330Z,99064.80
2023-03-05T12:38:32.344Z,99078.86
2023-03-05T12:41:34.016Z,99062.69
2023-03-05T12:44:13.996Z,99075.45
2023-03-05T12:46:50.736Z,99087.13
2023-03-05T12:49:28.655Z,99090.70
2023-03-05T12:52:01.243Z,99092.13
2023-03-05T12:54:42.295Z,99079.16
2023-03-05T12:57:24.294Z,99076.89
2023-03-05T13:00:05.690Z,99076.09
2023-03-05T13:02:45.560Z,99076.97
2023-03-05T13:05:29.533Z,99077.39
2023-03-05T13:08:16.378Z,99088.33
2023-03-05T13:11:02.329Z,99079.91
2023-03-05T13:13:41.155Z,99087.28
2023-03-05T13:16:29.522Z,99082.50
2023-03-05T13:19:04.425Z,99092.80
2023-03-05T13:21:38.716Z,99078.78
2023-03-05T13:24:20.103Z,99093.94
2023-03-05T13:26:52.889Z,99094.19
2023-03-05T13:29:29.867Z,99095.34
2023-03-05T13:32:08.008Z,99099.55
2023-03-05T13:34:47.625Z,99089.72
2023-03-05T13:37:22.684Z,99091.09
2023-03-05T13:40:21.868Z,99096.98
2023-03-05T13:42:57.069Z,99102.33
2023-03-05T13:45:32.483Z,99101.11
2023-03-05T13:48:07.616Z,99096.95
2023-03-05T13:50:42.223Z,99092.89
2023-03-05T13:53:31.102Z,99088.83
2023-03-05T13:56:09.126Z,99086.66
2023-03-05T13:58:55.157Z,99094.55
2023-03-05T14:01:44.140Z,99088.97
2023-03-05T14:04:23.930Z,99088.02
2023-03-05T14:07:06.412Z,99091.56
2023-03-05T14:09:47.486Z,99090.41
2023-03-05T14:12:31.304Z,99100.59
2023-03-05T14:15:08.431Z,99107.59
2023-03-05T14:17:44.418Z,99100.67
2023-03-05T14:20:32.305Z,99103.03
2023-03-05T14:23:27.011Z,99106.14
2023-03-05T14:26:30.150Z,99098.09
2023-03-05T14:29:17.302Z,99099.91
2023-03-05T14:32:01.783Z,99103.93
2023-03-05T14:34:41.525Z,99096.63
2023-03-05T14:37:27.147Z,99107.58
2023-03-05T14:40:06.615Z,99105.22
2023-03-05T14:42:58.898Z,99107.53
2023-03-05T14:45:37.947Z,99111.05
2023-03-05T14:48:14.183Z,99113.58
2023-03-05T14:50:56.527Z,99114.08
2023-03-05T14:53:40.036Z,99115.50
2023-03-05T14:56:28.630Z,99121.59
2023-03-05T14:59:03.245Z,99123.39
2023-03-05T15:01:36.488Z,99125.31
2023-03-05T15:04:09.741Z,99133.67
2023-03-05T15:06:45.980Z,99136.79
2023-03-05T15:09:21.417Z,99138.48
2023-03-05T15:11:54.667Z,99135.51
2023-03-05T15:14:28.470Z,99138.90
2023-03-05T15:17:02.381Z,99146.16
2023-03-05T15:19:35.902Z,99149.27
2023-03-05T15:22:12.046Z,99146.28
2023-03-05T15:24:45.936Z,99151.06
2023-03-05T15:27:19.087Z,99147.29
2023-03-05T15:29:52.438Z,99150.77
2023-03-05T15:32:27.598Z,99157.33
2023-03-05T15:35:01.498Z,99162.09
2023-03-05T15:37:35.408Z,99165.06
2023-03-05T15:40:10.049Z,99167.12
2023-03-05T15:42:43.630Z,99169.81
2023-03-05T15:45:17.475Z,99173.78
2023-03-05T15:47:54.900Z,99171.78
2023-03-05T15:50:28.028Z,99183.09
2023-03-05T15:53:00.825Z,99187.16
2023-03-05T15:55:33.943Z,99183.38
2023-03-05T15:58:07.928Z,99187.83
2023-03-05T16:00:42.292Z,99190.60
2023-03-05T16:03:15.386Z,99194.27
2023-03-05T16:05:48.036Z,99191.37
2023-03-05T16:08:21.423Z,99197.50
2023-03-05T16:10:55.122Z,99196.78
2023-03-05T16:13:30.157Z,99208.21
2023-03-05T16:16:06.394Z,99209.66
2023-03-05T16:18:42.625Z,99207.38
2023-03-05T16:21:15.740Z,99206.17
2023-03-05T16:23:50.117Z,99207.30
2023-03-05T16:26:23.494Z,99213.45
2023-03-05T16:28:57.069Z,99207.97
2023-03-05T16:31:35.600Z,99204.27
2023-03-05T16:34:08.825Z,99203.45
2023-03-05T16:36:44.497Z,99209.98
2023-03-05T16:39:18.016Z,99208.36
2023-03-05T16:41:52.993Z,99207.63
2023-03-05T16:44:25.798Z,99214.26
2023-03-05T16:46:59.490Z,99210.55
2023-03-05T16:49:33.324Z,99215.77
2023-03-05T16:52:18.456Z,99220.23
2023-03-05T16:54:42.476Z,99221.55
2023-03-05T16:57:15.980Z,99214.41
2023-03-05T16:59:48.819Z,99215.18
2023-03-05T17:02:21.733Z,99221.80
2023-03-05T17:04:56.493Z,99219.77
2023-03-05T17:07:29.338Z,99218.15
2023-03-05T17:10:03.110Z,99213.58
2023-03-05T17:12:36.977Z,99209.86
2023-03-05T17:15:12.273Z,99217.47
2023-03-05T17:17:45.077Z,99211.73
2023-03-05T17:20:20.415Z,99217.94
2023-03-05T17:22:53.277Z,99211.68
2023-03-05T17:25:26.218Z,99211.94
2023-03-05T17:27:59.742Z,99223.70
2023-03-05T17:30:33.748Z,99222.73
2023-03-05T17:33:08.204Z,99231.20
2023-03-05T17:35:41.504Z,99235.61
2023-03-05T17:38:15.632Z,99230.63
2023-03-05T17:40:49.333Z,99230.88
2023-03-05T17:43:22.218Z,99234.62
2023-03-05T17:45:56.639Z,99235.69
2023-03-05T17:48:30.121Z,99240.52
2023-03-05T17:51:03.722Z,99242.75
2023-03-05T17:53:39.258Z,99245.73
2023-03-05T17:56:16.241Z,99247.84
2023-03-05T17:58:49.682Z,99249.83
2023-03-05T18:01:30.591Z,99245.13
2023-03-05T18:04:04.174Z,99250.17
2023-03-05T18:06:37.142Z,99247.36
2023-03-05T18:09:10.365Z,99244.47
2023-03-05T18:11:44.486Z,99251.03
2023-03-05T18:14:19.019Z,99255.93
2023-03-05T18:16:52.546Z,99256.49
2023-03-05T18:19:26.155Z,99258.42
2023-03-05T18:21:59.082Z,99252.77
2023-03-05T18:24:32.045Z,99254.28
2023-03-05T18:27:06.042Z,99256.38
2023-03-05T18:29:38.972Z,99254.97
2023-03-05T18:32:12.683Z,99242.75
2023-03-05T18:34:46.834Z,99249.06
2023-03-05T18:37:19.710Z,99252.55
2023-03-05T18:39:53.274Z,99253.97
2023-03-05T18:42:26.453Z,99258.22
2023-03-05T18:45:01.141Z,99259.91
2023-03-05T18:47:34.604Z,99255.93
2023-03-05T18:50:10.461Z,99256.30
2023-03-05T18:52:45.908Z,99266.10
2023-03-05T18:55:25.384Z,99256.61
2023-03-05T18:57:58.805Z,99263.48
2023-03-05T19:00:32.623Z,99260.81
2023-03-05T19:03:06.149Z,99257.63
2023-03-05T19:05:41.872Z,99269.11
2023-03-05T19:08:15.585Z,99262.44
2023-03-05T19:10:48.813Z,99268.19
2023-03-05T19:13:40.759Z,99265.38
2023-03-05T19:16:18.611Z,99265.62
2023-03-05T19:19:07.910Z,99260.88
2023-03-05T19:21:57.371Z,99259.59
2023-03-05T19:24:32.727Z,99256.13
2023-03-05T19:27:08.248Z,99251.41
2023-03-05T19:29:43.177Z,99256.82
2023-03-05T19:32:18.374Z,99246.05
2023-03-05T19:34:51.779Z,99247.09
2023-03-05T19:37:25.327Z,99242.86
2023-03-05T19:39:57.925Z,99244.81
2023-03-05T19:42:31.365Z,99242.27
2023-03-05T19:45:05.114Z,99246.63
2023-03-05T19:47:37.903Z,99244.08
2023-03-05T19:50:12.896Z,99244.59
2023-03-05T19:52:46.886Z,99244.34
2023-03-05T19:55:20.524Z,99242.66
2023-03-05T19:57:54.412Z,99231.02
2023-03-05T20:00:28.157Z,99219.06
2023-03-05T20:03:01.028Z,99228.80
2023-03-05T20:05:34.364Z,99232.50
2023-03-05T20:08:07.046Z,99234.95
2023-03-05T20:10:40.257Z,99229.94
2023-03-05T20:13:14.025Z,99233.91
2023-03-05T20:15:46.841Z,99226.36
2023-03-05T20:18:20.149Z,99226.74
2023-03-05T20:20:59.988Z,99228.55
2023-03-05T20:23:32.980Z,99234.34
2023-03-05T20:26:07.351Z,99227.05
2023-03-05T20:28:40.410Z,99221.28
2023-03-05T20:31:13.806Z,99220.51
2023-03-05T20:33:46.687Z,99221.80
2023-03-05T20:36:20.018Z,99229.38
2023-03-05T20:38:52.999Z,99218.59
2023-03-05T20:41:27.218Z,99215.01
2023-03-05T20:44:00.933Z,99209.88
2023-03-05T20:46:39.864Z,99202.83
2023-03-05T20:49:12.675Z,99207.56
2023-03-05T20:51:47.277Z,99210.13
2023-03-05T20:54:20.529Z,99211.02
2023-03-05T20:56:53.424Z,99207.56
2023-03-05T20:59:26.153Z,99211.55
2023-03-05T21:01:59.524Z,99206.56
2023-03-05T21:04:33.336Z,99203.34
2023-03-05T21:07:06.395Z,99198.72
2023-03-05T21:09:39.572Z,99201.68
2023-03-05T21:12:13.260Z,99185.64
2023-03-05T21:14:47.625Z,99186.16
2023-03-05T21:17:20.485Z,99192.30
2023-03-05T21:19:53.775Z,99181.03
2023-03-05T21:22:26.938Z,99187.97
2023-03-05T21:25:05.064Z,99179.62
2023-03-05T21:27:38.261Z,99182.58
2023-03-05T21:30:13.757Z,99187.05
2023-03-05T21:32:47.295Z,99188.20
2023-03-05T21:35:23.157Z,99194.38
2023-03-05T21:37:56.663Z,99187.44
2023-03-05T21:40:30.184Z,99192.83
2023-03-05T21:43:04.055Z,99190.00
2023-03-05T21:45:37.228Z,99191.94
2023-03-05T21:48:11.438Z,99193.49
2023-03-05T21:50:46.769Z,99191.17
2023-03-05T21:53:22.347Z,99197.72
2023-03-05T21:56:05.946Z,99201.44
2023-03-05T21:58:40.119Z,99194.77
2023-03-05T22:01:14.972Z,99197.47
2023-03-05T22:03:48.582Z,99199.64
2023-03-05T22:06:22.436Z,99202.17
2023-03-05T22:08:54.935Z,99198.46
2023-03-05T22:11:28.416Z,99205.36
2023-03-05T22:14:01.851Z,99194.98
2023-03-05T22:16:34.747Z,99202.80
2023-03-05T22:19:09.125Z,99198.46
2023-03-05T22:21:42.340Z,99206.28
2023-03-05T22:24:16.951Z,99206.18
2023-03-05T22:26:49.950Z,99209.00
2023-03-05T22:29:23.291Z,99207.69
2023-03-05T22:31:57.003Z,99211.15
2023-03-05T22:34:29.943Z,99213.09
2023-03-05T22:37:03.061Z,99207.56
2023-03-05T22:39:36.376Z,99210.13
2023-03-05T22:42:10.906Z,99212.92
2023-03-05T22:44:44.312Z,99218.44
2023-03-05T22:47:18.148Z,99215.84
2023-03-05T22:49:51.136Z,99211.06
2023-03-05T22:52:23.952Z,99212.07
2023-03-05T22:54:56.902Z,99201.28
2023-03-05T22:57:30.212Z,99204.58
2023-03-05T23:00:03.287Z,99204.18
2023-03-05T23:02:37.096Z,99202.64
2023-03-05T23:05:11.150Z,99207.02
2023-03-05T23:07:45.208Z,99199.86
2023-03-05T23:10:28.726Z,99200.61
2023-03-05T23:13:02.976Z,99202.51
2023-03-05T23:15:39.446Z,99197.23
2023-03-05T23:18:14.594Z,99195.28
2023-03-05T23:20:47.568Z,99200.52
2023-03-05T23:23:20.884Z,99196.94
2023-03-05T23:25:54.538Z,99195.13
2023-03-05T23:28:27.296Z,99195.00
2023-03-05T23:31:01.060Z,99191.02
2023-03-05T23:33:34.101Z,99184.48
2023-03-05T23:36:07.921Z,99185.63
2023-03-05T23:38:41.947Z,99187.42
2023-03-05T23:41:14.679Z,99190.98
2023-03-05T23:43:48.870Z,99185.73
2023-03-05T23:46:21.673Z,99181.50
2023-03-05T23:48:54.644Z,99178.80
2023-03-05T23:51:27.397Z,99182.39
2023-03-05T23:54:00.346Z,99175.38
2023-03-05T23:56:33.458Z,99172.83
2023-03-05T23:59:06.620Z,99173.77
